createdAt,value
2019-02-25T00:00:31.781Z,83.26
2019-02-25T00:03:06.376Z,83.15
2019-02-25T00:05:37.902Z,82.97
2019-02-25T00:08:10.615Z,82.99
2019-02-25T00:10:43.315Z,83.08
2019-02-25T00:13:16.056Z,83.13
2019-02-25T00:15:48.783Z,83.07
2019-02-25T00:18:21.978Z,83.19
2019-02-25T00:20:54.957Z,83.27
2019-02-25T00:23:27.770Z,83.28
2019-02-25T00:26:00.560Z,83.25
2019-02-25T00:28:34.104Z,83.09
2019-02-25T00:31:06.553Z,83.22
2019-02-25T00:33:39.982Z,83.26
2019-02-25T00:36:13.323Z,83.43
2019-02-25T00:38:46.667Z,83.67
2019-02-25T00:41:19.302Z,84.04
2019-02-25T00:43:51.814Z,83.97
2019-02-25T00:46:27.487Z,83.92
2019-02-25T00:49:00.795Z,84.01
2019-02-25T00:51:33.848Z,84.37
2019-02-25T00:54:05.943Z,84.41
2019-02-25T00:56:39.008Z,84.33
2019-02-25T00:59:11.940Z,84.35
2019-02-25T01:01:44.335Z,84.35
2019-02-25T01:04:17.116Z,84.63
2019-02-25T01:06:52.120Z,84.64
2019-02-25T01:09:25.651Z,84.66
2019-02-25T01:12:00.169Z,84.78
2019-02-25T01:14:33.079Z,84.68
2019-02-25T01:17:06.271Z,84.56
2019-02-25T01:19:37.924Z,84.52
2019-02-25T01:22:12.835Z,84.61
2019-02-25T01:24:45.313Z,84.68
2019-02-25T01:27:17.697Z,85.14
2019-02-25T01:29:50.472Z,84.86
2019-02-25T01:32:23.989Z,84.88
2019-02-25T01:34:56.465Z,84.92
2019-02-25T01:37:29.946Z,85.17
2019-02-25T01:40:03.718Z,85.35
2019-02-25T01:42:40.358Z,85.37
2019-02-25T01:45:13.613Z,85.90
2019-02-25T01:47:47.937Z,85.72
2019-02-25T01:50:20.626Z,85.68
2019-02-25T01:52:53.539Z,85.72
2019-02-25T01:55:26.373Z,85.71
2019-02-25T01:58:00.290Z,85.83
2019-02-25T02:00:34.419Z,85.97
2019-02-25T02:03:07.034Z,85.87
2019-02-25T02:05:40.622Z,86.10
2019-02-25T02:08:13.440Z,85.81
2019-02-25T02:10:46.586Z,85.99
2019-02-25T02:13:19.084Z,85.86
2019-02-25T02:15:51.922Z,85.87
2019-02-25T02:18:27.721Z,85.89
2019-02-25T02:21:02.706Z,85.69
2019-02-25T02:23:34.586Z,85.83
2019-02-25T02:26:08.213Z,85.84
2019-02-25T02:28:40.871Z,85.93
2019-02-25T02:31:13.407Z,85.78
2019-02-25T02:33:46.079Z,86.11
2019-02-25T02:36:19.240Z,86.05
2019-02-25T02:38:51.954Z,86.63
2019-02-25T02:41:25.569Z,86.18
2019-02-25T02:44:00.026Z,86.18
2019-02-25T02:47:22.320Z,86.38
2019-02-25T02:49:54.818Z,86.67
2019-02-25T02:52:29.455Z,86.65
2019-02-25T02:55:01.588Z,86.64
2019-02-25T02:57:34.172Z,86.71
2019-02-25T03:00:12.110Z,86.88
2019-02-25T03:02:44.510Z,86.71
2019-02-25T03:05:20.743Z,86.83
2019-02-25T03:07:54.047Z,86.94
2019-02-25T03:10:30.200Z,87.22
2019-02-25T03:13:02.647Z,87.29
2019-02-25T03:15:38.139Z,87.45
2019-02-25T03:18:11.467Z,87.44
2019-02-25T03:20:43.948Z,87.52
2019-02-25T03:23:17.900Z,87.77
2019-02-25T03:25:51.516Z,87.58
2019-02-25T03:28:24.773Z,87.94
2019-02-25T03:30:57.239Z,87.95
2019-02-25T03:33:30.353Z,87.84
2019-02-25T03:36:03.770Z,87.90
2019-02-25T03:38:38.290Z,88.05
2019-02-25T03:41:11.108Z,88.23
2019-02-25T03:43:44.239Z,88.30
2019-02-25T03:46:18.486Z,88.55
2019-02-25T03:48:51.584Z,88.65
2019-02-25T03:51:24.051Z,88.71
2019-02-25T03:53:56.841Z,88.62
2019-02-25T03:56:29.699Z,88.74
2019-02-25T03:59:03.419Z,88.79
2019-02-25T04:01:35.788Z,88.89
2019-02-25T04:04:08.453Z,89.14
2019-02-25T04:06:42.783Z,89.38
2019-02-25T04:09:16.714Z,89.29
2019-02-25T04:11:50.698Z,89.50
2019-02-25T04:14:23.591Z,89.75
2019-02-25T04:16:58.003Z,89.70
2019-02-25T04:19:31.488Z,90.03
2019-02-25T04:22:03.589Z,89.99
2019-02-25T04:24:35.683Z,90.29
2019-02-25T04:27:09.543Z,90.27
2019-02-25T04:29:42.506Z,90.41
2019-02-25T04:32:17.019Z,90.71
2019-02-25T04:34:49.530Z,90.96
2019-02-25T04:37:26.009Z,90.86
2019-02-25T04:39:58.466Z,91.29
2019-02-25T04:42:31.194Z,91.18
2019-02-25T04:45:04.308Z,91.32
2019-02-25T04:47:38.723Z,91.45
2019-02-25T04:50:12.638Z,91.46
2019-02-25T04:52:46.386Z,91.37
2019-02-25T04:55:18.608Z,91.23
2019-02-25T04:57:51.563Z,91.15
2019-02-25T05:00:23.962Z,91.10
2019-02-25T05:02:57.128Z,91.31
2019-02-25T05:05:31.283Z,91.23
2019-02-25T05:08:04.239Z,91.55
2019-02-25T05:10:38.928Z,91.29
2019-02-25T05:13:11.715Z,91.57
2019-02-25T05:15:45.257Z,91.74
2019-02-25T05:18:18.653Z,91.84
2019-02-25T05:20:51.287Z,92.01
2019-02-25T05:23:24.012Z,92.27
2019-02-25T05:25:57.486Z,92.04
2019-02-25T05:28:31.735Z,91.99
2019-02-25T05:31:04.503Z,92.01
2019-02-25T05:33:37.148Z,92.17
2019-02-25T05:36:10.301Z,92.17
2019-02-25T05:38:44.139Z,92.43
2019-02-25T05:41:16.917Z,92.55
2019-02-25T05:43:49.584Z,92.53
2019-02-25T05:46:22.392Z,92.50
2019-02-25T05:48:56.697Z,92.56
2019-02-25T05:51:29.274Z,92.46
2019-02-25T05:54:02.039Z,92.64
2019-02-25T05:56:34.672Z,93.17
2019-02-25T05:59:08.992Z,92.89
2019-02-25T06:01:41.132Z,93.42
2019-02-25T06:04:14.144Z,93.42
2019-02-25T06:06:46.911Z,93.44
2019-02-25T06:09:21.622Z,93.52
2019-02-25T06:11:55.400Z,93.66
2019-02-25T06:14:29.679Z,93.95
2019-02-25T06:17:06.802Z,94.03
2019-02-25T06:19:39.310Z,93.82
2019-02-25T06:22:12.368Z,93.85
2019-02-25T06:24:44.790Z,93.75
2019-02-25T06:27:18.696Z,94.34
2019-02-25T06:29:51.843Z,94.45
2019-02-25T06:32:40.952Z,94.20
2019-02-25T06:35:16.467Z,94.18
2019-02-25T06:37:52.364Z,94.35
2019-02-25T06:40:27.802Z,94.42
2019-02-25T06:43:05.852Z,94.78
2019-02-25T06:45:37.568Z,94.65
2019-02-25T06:48:11.868Z,94.48
2019-02-25T06:50:44.449Z,94.89
2019-02-25T06:53:18.326Z,94.44
2019-02-25T06:55:51.328Z,94.44
2019-02-25T06:58:23.144Z,95.26
2019-02-25T07:00:55.708Z,95.48
2019-02-25T07:03:29.160Z,95.98
2019-02-25T07:06:29.943Z,96.25
2019-02-25T07:09:29.756Z,96.36
2019-02-25T07:12:27.870Z,96.62
2019-02-25T07:15:18.834Z,96.80
2019-02-25T07:18:09.404Z,96.66
2019-02-25T07:21:00.399Z,97.14
2019-02-25T07:23:51.505Z,97.07
2019-02-25T07:26:42.541Z,97.05
2019-02-25T07:29:33.815Z,97.33
2019-02-25T07:32:31.692Z,97.22
2019-02-25T07:35:16.459Z,97.39
2019-02-25T07:37:56.487Z,97.44
2019-02-25T07:40:49.241Z,97.04
2019-02-25T07:43:56.704Z,97.06
2019-02-25T07:46:47.173Z,96.78
2019-02-25T07:49:33.529Z,96.45
2019-02-25T07:52:25.361Z,96.37
2019-02-25T07:55:21.160Z,95.60
2019-02-25T07:58:14.829Z,95.59
2019-02-25T08:01:23.370Z,95.22
2019-02-25T08:04:15.257Z,94.50
2019-02-25T08:07:02.123Z,94.19
2019-02-25T08:09:40.216Z,93.42
2019-02-25T08:12:46.140Z,92.01
2019-02-25T08:15:31.026Z,90.56
2019-02-25T08:18:21.039Z,88.83
2019-02-25T08:21:14.210Z,87.96
2019-02-25T08:24:04.618Z,85.94
2019-02-25T08:26:49.474Z,85.14
2019-02-25T08:29:43.434Z,84.16
2019-02-25T08:32:25.832Z,83.05
2019-02-25T08:35:16.669Z,83.08
2019-02-25T08:38:14.162Z,82.19
2019-02-25T08:41:36.966Z,81.64
2019-02-25T08:44:38.623Z,81.17
2019-02-25T08:47:22.877Z,80.63
2019-02-25T08:50:00.774Z,79.79
2019-02-25T08:52:35.089Z,78.63
2019-02-25T08:55:09.020Z,77.76
2019-02-25T08:57:42.820Z,76.98
2019-02-25T09:00:19.145Z,77.10
2019-02-25T09:02:54.013Z,76.44
2019-02-25T09:05:27.836Z,76.14
2019-02-25T09:08:02.031Z,75.90
2019-02-25T09:10:34.993Z,75.24
2019-02-25T09:13:08.717Z,73.62
2019-02-25T09:15:42.017Z,73.26
2019-02-25T09:18:14.404Z,73.28
2019-02-25T09:20:47.832Z,72.68
2019-02-25T09:23:22.009Z,71.03
2019-02-25T09:26:00.493Z,70.18
2019-02-25T09:28:38.372Z,68.57
2019-02-25T09:31:16.209Z,68.99
2019-02-25T09:33:51.918Z,68.82
2019-02-25T09:36:25.685Z,67.42
2019-02-25T09:38:58.636Z,67.38
2019-02-25T09:41:31.640Z,66.54
2019-02-25T09:44:04.276Z,65.59
2019-02-25T09:46:37.607Z,65.76
2019-02-25T09:49:11.004Z,64.13
2019-02-25T09:51:44.370Z,63.48
2019-02-25T09:54:15.691Z,63.52
2019-02-25T09:56:48.780Z,63.12
2019-02-25T09:59:26.682Z,63.05
2019-02-25T10:02:03.519Z,62.59
2019-02-25T10:04:36.499Z,61.11
2019-02-25T10:07:11.073Z,60.83
2019-02-25T10:09:44.197Z,60.86
2019-02-25T10:12:17.248Z,59.32
2019-02-25T10:14:50.464Z,59.24
2019-02-25T10:17:24.000Z,58.73
2019-02-25T10:19:56.178Z,58.94
2019-02-25T10:22:33.542Z,57.55
2019-02-25T10:25:07.077Z,55.83
2019-02-25T10:27:41.835Z,55.63
2019-02-25T10:30:15.170Z,54.25
2019-02-25T10:32:49.085Z,53.89
2019-02-25T10:35:22.415Z,53.63
2019-02-25T10:37:54.461Z,53.12
2019-02-25T10:40:27.807Z,52.50
2019-02-25T10:43:01.386Z,51.94
2019-02-25T10:45:34.493Z,52.41
2019-02-25T10:48:08.757Z,52.02
2019-02-25T10:50:45.926Z,51.39
2019-02-25T10:53:20.280Z,50.08
2019-02-25T10:56:19.279Z,50.34
2019-02-25T10:58:53.708Z,49.63
2019-02-25T11:01:26.665Z,48.89
2019-02-25T11:04:01.162Z,49.36
2019-02-25T11:06:35.993Z,49.03
2019-02-25T11:09:36.391Z,49.11
2019-02-25T11:12:09.966Z,48.59
2019-02-25T11:14:43.476Z,49.10
2019-02-25T11:17:16.142Z,49.00
2019-02-25T11:19:49.196Z,48.19
2019-02-25T11:22:21.945Z,47.42
2019-02-25T11:24:55.553Z,47.28
2019-02-25T11:27:31.304Z,46.21
2019-02-25T11:30:07.365Z,45.82
2019-02-25T11:32:41.155Z,45.22
2019-02-25T11:35:15.386Z,44.90
2019-02-25T11:37:54.217Z,43.18
2019-02-25T11:40:28.955Z,44.85
2019-02-25T11:43:03.426Z,44.56
2019-02-25T11:45:38.041Z,41.58
2019-02-25T11:48:11.998Z,42.22
2019-02-25T11:50:45.050Z,42.06
2019-02-25T11:53:20.134Z,41.01
2019-02-25T11:55:53.897Z,42.26
2019-02-25T11:58:27.057Z,42.47
2019-02-25T12:01:04.558Z,41.71
2019-02-25T12:03:38.705Z,42.49
2019-02-25T12:06:11.454Z,40.76
2019-02-25T12:08:44.275Z,41.55
2019-02-25T12:11:17.488Z,40.48
2019-02-25T12:13:50.505Z,40.08
2019-02-25T12:16:21.862Z,40.29
2019-02-25T12:18:55.046Z,41.77
2019-02-25T12:21:27.816Z,40.35
2019-02-25T12:24:01.431Z,40.44
2019-02-25T12:26:35.470Z,38.94
2019-02-25T12:29:11.023Z,40.16
2019-02-25T12:31:44.904Z,39.28
2019-02-25T12:34:18.595Z,39.88
2019-02-25T12:36:51.735Z,39.54
2019-02-25T12:40:31.708Z,39.65
2019-02-25T12:43:26.416Z,38.88
2019-02-25T12:46:00.229Z,39.87
2019-02-25T12:48:35.425Z,40.47
2019-02-25T12:51:10.594Z,40.13
2019-02-25T12:53:44.035Z,40.36
2019-02-25T12:56:19.549Z,39.92
2019-02-25T12:58:54.926Z,39.98
2019-02-25T13:01:30.252Z,40.45
2019-02-25T13:04:03.444Z,40.37
2019-02-25T13:06:36.836Z,41.75
2019-02-25T13:09:15.253Z,41.25
2019-02-25T13:11:48.887Z,41.42
2019-02-25T13:14:23.646Z,42.00
2019-02-25T13:16:57.170Z,41.40
2019-02-25T13:19:32.535Z,42.28
2019-02-25T13:22:05.899Z,42.01
2019-02-25T13:24:40.545Z,41.48
2019-02-25T13:27:13.879Z,42.27
2019-02-25T13:29:49.714Z,41.98
2019-02-25T13:32:23.708Z,43.01
2019-02-25T13:34:56.349Z,43.02
2019-02-25T13:37:30.619Z,43.11
2019-02-25T13:40:04.844Z,44.50
2019-02-25T13:42:44.846Z,44.53
2019-02-25T13:45:21.162Z,44.25
2019-02-25T13:47:58.080Z,44.02
2019-02-25T13:50:30.180Z,44.15
2019-02-25T13:53:03.773Z,44.06
2019-02-25T13:55:37.457Z,44.01
2019-02-25T13:58:09.850Z,43.96
2019-02-25T14:00:43.083Z,43.96
2019-02-25T14:03:16.697Z,45.10
2019-02-25T14:05:51.784Z,45.25
2019-02-25T14:08:25.511Z,44.25
2019-02-25T14:10:58.324Z,44.79
2019-02-25T14:13:32.009Z,45.12
2019-02-25T14:16:05.377Z,46.37
2019-02-25T14:18:37.788Z,45.86
2019-02-25T14:21:10.949Z,45.53
2019-02-25T14:23:45.474Z,46.57
2019-02-25T14:26:19.103Z,45.57
2019-02-25T14:28:52.811Z,46.80
2019-02-25T14:31:29.938Z,46.75
2019-02-25T14:34:04.206Z,47.04
2019-02-25T14:36:36.329Z,46.57
2019-02-25T14:39:25.272Z,46.73
2019-02-25T14:41:59.159Z,46.85
2019-02-25T14:44:35.374Z,47.53
2019-02-25T14:47:19.773Z,49.10
2019-02-25T14:49:42.948Z,47.67
2019-02-25T14:52:19.301Z,48.88
2019-02-25T14:54:55.265Z,48.36
2019-02-25T14:57:30.850Z,48.72
2019-02-25T15:00:04.424Z,48.13
2019-02-25T15:02:38.989Z,48.14
2019-02-25T15:05:13.046Z,48.16
2019-02-25T15:07:46.738Z,48.25
2019-02-25T15:10:26.565Z,48.08
2019-02-25T15:13:01.548Z,47.01
2019-02-25T15:15:34.829Z,46.97
2019-02-25T15:18:08.635Z,47.42
2019-02-25T15:20:42.090Z,47.15
2019-02-25T15:23:17.214Z,47.00
2019-02-25T15:25:50.886Z,47.42
2019-02-25T15:28:24.858Z,46.99
2019-02-25T15:31:02.140Z,47.12
2019-02-25T15:33:35.475Z,46.20
2019-02-25T15:36:11.487Z,47.08
2019-02-25T15:38:43.942Z,46.80
2019-02-25T15:41:16.868Z,47.33
2019-02-25T15:43:57.977Z,47.49
2019-02-25T15:46:29.820Z,47.63
2019-02-25T15:49:01.623Z,47.22
2019-02-25T15:51:37.083Z,48.06
2019-02-25T15:54:11.258Z,48.01
2019-02-25T15:56:46.164Z,49.84
2019-02-25T15:59:20.649Z,48.07
2019-02-25T16:01:55.283Z,49.21
2019-02-25T16:04:31.828Z,50.16
2019-02-25T16:07:06.602Z,49.75
2019-02-25T16:09:40.796Z,50.12
2019-02-25T16:12:15.694Z,51.23
2019-02-25T16:14:50.945Z,50.68
2019-02-25T16:17:25.020Z,51.09
2019-02-25T16:19:58.566Z,51.40
2019-02-25T16:22:34.577Z,52.63
2019-02-25T16:25:14.120Z,53.08
2019-02-25T16:27:49.872Z,53.22
2019-02-25T16:30:23.580Z,53.86
2019-02-25T16:32:59.670Z,54.39
2019-02-25T16:35:34.331Z,54.84
2019-02-25T16:38:08.210Z,55.22
2019-02-25T16:40:42.417Z,55.34
2019-02-25T16:43:19.091Z,56.01
2019-02-25T16:45:52.579Z,55.95
2019-02-25T16:48:27.728Z,57.86
2019-02-25T16:51:02.552Z,57.81
2019-02-25T16:53:39.057Z,58.29
2019-02-25T16:56:14.160Z,58.92
2019-02-25T16:58:49.858Z,59.95
2019-02-25T17:01:25.913Z,59.54
2019-02-25T17:03:59.679Z,60.50
2019-02-25T17:06:34.279Z,61.07
2019-02-25T17:09:11.782Z,61.54
2019-02-25T17:11:46.049Z,62.15
2019-02-25T17:14:21.671Z,62.61
2019-02-25T17:16:57.022Z,62.67
2019-02-25T17:19:35.786Z,62.37
2019-02-25T17:22:22.157Z,63.96
2019-02-25T17:25:09.646Z,64.50
2019-02-25T17:27:47.935Z,64.74
2019-02-25T17:30:22.029Z,63.82
2019-02-25T17:32:56.024Z,64.90
2019-02-25T17:35:33.092Z,65.25
2019-02-25T17:38:07.235Z,66.10
2019-02-25T17:40:39.920Z,66.24
2019-02-25T17:43:13.994Z,67.03
2019-02-25T17:45:48.023Z,67.52
2019-02-25T17:48:21.217Z,67.64
2019-02-25T17:50:55.120Z,67.99
2019-02-25T17:53:31.071Z,68.18
2019-02-25T17:56:04.996Z,69.21
2019-02-25T17:58:42.318Z,69.37
2019-02-25T18:01:17.019Z,69.67
2019-02-25T18:03:52.248Z,70.51
2019-02-25T18:06:30.121Z,70.29
2019-02-25T18:09:04.944Z,70.74
2019-02-25T18:11:43.290Z,71.33
2019-02-25T18:14:19.873Z,71.31
2019-02-25T18:16:53.980Z,72.01
2019-02-25T18:19:31.486Z,72.45
2019-02-25T18:22:17.968Z,72.65
2019-02-25T18:24:50.257Z,72.66
2019-02-25T18:27:24.655Z,73.03
2019-02-25T18:30:16.209Z,73.40
2019-02-25T18:32:53.537Z,73.58
2019-02-25T18:35:30.538Z,74.19
2019-02-25T18:38:07.240Z,74.46
2019-02-25T18:40:46.230Z,74.77
2019-02-25T18:43:21.623Z,74.95
2019-02-25T18:45:56.268Z,75.22
2019-02-25T18:48:31.037Z,75.20
2019-02-25T18:51:05.105Z,75.64
2019-02-25T18:53:42.193Z,76.06
2019-02-25T18:56:16.857Z,76.52
2019-02-25T18:58:53.746Z,76.85
2019-02-25T19:01:28.386Z,76.96
2019-02-25T19:04:05.897Z,77.39
2019-02-25T19:06:41.880Z,77.91
2019-02-25T19:09:31.215Z,78.09
2019-02-25T19:12:06.268Z,78.45
2019-02-25T19:14:39.330Z,78.99
2019-02-25T19:17:12.633Z,79.20
2019-02-25T19:19:46.979Z,79.11
2019-02-25T19:22:23.488Z,79.70
2019-02-25T19:24:57.799Z,80.19
2019-02-25T19:27:33.636Z,80.27
2019-02-25T19:30:08.250Z,80.62
2019-02-25T19:32:43.145Z,81.14
2019-02-25T19:35:17.375Z,81.77
2019-02-25T19:37:52.079Z,82.32
2019-02-25T19:40:25.934Z,82.70
2019-02-25T19:43:06.039Z,82.94
2019-02-25T19:45:40.899Z,82.98
2019-02-25T19:48:19.263Z,83.20
2019-02-25T19:50:54.486Z,83.25
2019-02-25T19:53:31.469Z,83.73
2019-02-25T19:56:04.080Z,84.00
2019-02-25T19:58:43.685Z,84.09
2019-02-25T20:01:19.434Z,84.13
2019-02-25T20:03:52.111Z,84.44
2019-02-25T20:06:26.261Z,84.37
2019-02-25T20:09:21.694Z,84.34
2019-02-25T20:11:54.814Z,84.63
2019-02-25T20:14:25.828Z,84.52
2019-02-25T20:16:59.326Z,84.69
2019-02-25T20:19:32.814Z,84.73
2019-02-25T20:22:07.868Z,84.87
2019-02-25T20:24:46.041Z,85.07
2019-02-25T20:27:19.279Z,85.47
2019-02-25T20:29:52.036Z,85.86
2019-02-25T20:32:25.133Z,86.07
2019-02-25T20:34:59.334Z,86.28
2019-02-25T20:37:33.991Z,86.16
2019-02-25T20:40:09.255Z,86.64
2019-02-25T20:42:46.749Z,87.25
2019-02-25T20:45:23.649Z,87.30
2019-02-25T20:47:57.274Z,87.62
2019-02-25T20:50:31.631Z,88.01
2019-02-25T20:53:09.202Z,87.98
2019-02-25T20:55:44.331Z,87.97
2019-02-25T20:58:18.800Z,88.30
2019-02-25T21:00:52.941Z,89.27
2019-02-25T21:03:27.689Z,89.20
2019-02-25T21:06:07.775Z,89.33
2019-02-25T21:08:44.580Z,89.70
2019-02-25T21:11:20.624Z,90.02
2019-02-25T21:13:58.696Z,90.36
2019-02-25T21:16:34.598Z,90.43
2019-02-25T21:19:10.167Z,90.43
2019-02-25T21:21:43.287Z,90.65
2019-02-25T21:24:16.828Z,91.03
2019-02-25T21:26:55.229Z,91.32
2019-02-25T21:29:31.758Z,91.30
2019-02-25T21:32:05.670Z,91.80
2019-02-25T21:34:38.369Z,91.44
2019-02-25T21:37:13.385Z,91.54
2019-02-25T21:39:46.039Z,91.57
2019-02-25T21:42:21.800Z,91.93
2019-02-25T21:44:57.034Z,92.28
2019-02-25T21:47:32.824Z,92.24
2019-02-25T21:50:07.421Z,93.21
2019-02-25T21:52:43.550Z,93.11
2019-02-25T21:55:18.256Z,93.07
2019-02-25T21:57:54.929Z,92.90
2019-02-25T22:00:31.965Z,93.00
2019-02-25T22:03:08.220Z,93.20
2019-02-25T22:05:40.323Z,93.33
2019-02-25T22:08:13.661Z,93.94
2019-02-25T22:10:47.526Z,94.21
2019-02-25T22:13:20.863Z,94.53
2019-02-25T22:15:53.812Z,94.45
2019-02-25T22:18:29.850Z,94.48
2019-02-25T22:21:07.139Z,95.03
2019-02-25T22:23:38.577Z,94.93
2019-02-25T22:26:10.268Z,95.11
2019-02-25T22:28:44.208Z,95.10
2019-02-25T22:31:19.098Z,95.15
2019-02-25T22:33:52.002Z,95.39
2019-02-25T22:36:25.918Z,95.54
2019-02-25T22:39:03.459Z,95.47
2019-02-25T22:41:36.549Z,95.10
2019-02-25T22:44:10.608Z,95.85
2019-02-25T22:46:44.195Z,96.18
2019-02-25T22:49:18.425Z,96.73
2019-02-25T22:51:51.914Z,96.56
2019-02-25T22:54:27.771Z,96.39
2019-02-25T22:57:00.641Z,96.95
2019-02-25T22:59:35.115Z,96.93
2019-02-25T23:02:08.771Z,97.34
2019-02-25T23:04:44.859Z,97.07
2019-02-25T23:07:20.532Z,97.11
2019-02-25T23:09:54.484Z,97.23
2019-02-25T23:12:29.434Z,97.55
2019-02-25T23:15:03.851Z,97.38
2019-02-25T23:17:37.526Z,97.59
2019-02-25T23:20:11.248Z,97.47
2019-02-25T23:22:46.117Z,97.66
2019-02-25T23:25:18.889Z,97.46
2019-02-25T23:27:53.504Z,97.46
2019-02-25T23:30:26.915Z,97.83
2019-02-25T23:33:00.877Z,97.94
2019-02-25T23:35:33.738Z,98.01
2019-02-25T23:38:06.536Z,98.37
2019-02-25T23:40:40.266Z,98.33
2019-02-25T23:43:16.692Z,98.37
2019-02-25T23:45:49.465Z,98.39
2019-02-25T23:48:26.430Z,98.33
2019-02-25T23:51:00.673Z,98.78
2019-02-25T23:53:35.130Z,98.80
2019-02-25T23:56:07.278Z,98.72
2019-02-25T23:58:42.377Z,98.58
